THY2ZD LTFM-LOWW
Flight info
| Callsign | THY2ZD |
|---|---|
| Flight time | N/A |
| Altitude | 34000 |
| Route | TUDBU DCT ETUBA DCT APROB DCT BALUX DCT TORNO DCT NATEX NATEX2W |
| Aircraft | A320/M-SDE3FGHIRWY/LB1 |
Departure
| Time | N/A |
|---|---|
| Airport | İstanbul Airport (LTFM) |
Arrival
| Time | 2026-05-04 15:57 |
|---|---|
| Airport | Vienna International Airport (LOWW) |
| Time | Latitude | Longitude | Altitude | Speed | Heading |
|---|---|---|---|---|---|
| 2026-05-04 15:39 | 47.51618 | 18.56675 | 26587 ft | 366 kts | 295° |
| 2026-05-04 15:39 | 47.57968 | 18.30310 | 23720 ft | 353 kts | 287° |
| 2026-05-04 15:40 | 47.60897 | 18.16570 | 22004 ft | 347 kts | 286° |
| 2026-05-04 15:40 | 47.63742 | 18.03032 | 20369 ft | 341 kts | 285° |
| 2026-05-04 15:40 | 47.66526 | 17.89717 | 18816 ft | 336 kts | 285° |
| 2026-05-04 15:40 | 47.68505 | 17.80133 | 17647 ft | 332 kts | 285° |
| 2026-05-04 15:41 | 47.69185 | 17.76864 | 17225 ft | 331 kts | 285° |
| 2026-05-04 15:41 | 47.69860 | 17.73609 | 16810 ft | 330 kts | 284° |
| 2026-05-04 15:41 | 47.70534 | 17.70353 | 16399 ft | 329 kts | 284° |
| 2026-05-04 15:41 | 47.70988 | 17.68158 | 16115 ft | 329 kts | 284° |
| 2026-05-04 15:42 | 47.71655 | 17.64916 | 15722 ft | 328 kts | 284° |
| 2026-05-04 15:42 | 47.72319 | 17.61676 | 15320 ft | 327 kts | 284° |
| 2026-05-04 15:42 | 47.72981 | 17.58451 | 14930 ft | 327 kts | 284° |
| 2026-05-04 15:42 | 47.73641 | 17.55225 | 14561 ft | 326 kts | 284° |
| 2026-05-04 15:43 | 47.74288 | 17.52006 | 14198 ft | 324 kts | 281° |
| 2026-05-04 15:43 | 47.74783 | 17.48819 | 14005 ft | 318 kts | 287° |
| 2026-05-04 15:43 | 47.75907 | 17.46049 | 14007 ft | 317 kts | 311° |
| 2026-05-04 15:43 | 47.77654 | 17.44019 | 13837 ft | 321 kts | 324° |
| 2026-05-04 15:44 | 47.79537 | 17.42251 | 13576 ft | 319 kts | 325° |
| 2026-05-04 15:44 | 47.81424 | 17.40516 | 13316 ft | 318 kts | 326° |
| 2026-05-04 15:44 | 47.83303 | 17.38795 | 13073 ft | 317 kts | 326° |
| 2026-05-04 15:44 | 47.85184 | 17.37076 | 12845 ft | 316 kts | 326° |
| 2026-05-04 15:45 | 47.87062 | 17.35363 | 12598 ft | 315 kts | 326° |
| 2026-05-04 15:45 | 47.88926 | 17.33667 | 12369 ft | 314 kts | 326° |
| 2026-05-04 15:45 | 47.90792 | 17.31972 | 12137 ft | 313 kts | 326° |
| 2026-05-04 15:45 | 47.94707 | 17.28419 | 11660 ft | 310 kts | 326° |
| 2026-05-04 15:46 | 48.02037 | 17.21772 | 10771 ft | 305 kts | 326° |
| 2026-05-04 15:46 | 48.09212 | 17.15274 | 9884 ft | 296 kts | 325° |
| 2026-05-04 15:46 | 48.16103 | 17.09071 | 8931 ft | 283 kts | 326° |
| 2026-05-04 15:46 | 48.22675 | 17.03129 | 8150 ft | 275 kts | 326° |
| 2026-05-04 15:47 | 48.29380 | 16.97069 | 7655 ft | 277 kts | 325° |
| 2026-05-04 15:47 | 48.35265 | 16.89833 | 7153 ft | 271 kts | 309° |
| 2026-05-04 15:47 | 48.39995 | 16.81071 | 6618 ft | 270 kts | 306° |
| 2026-05-04 15:47 | 48.44507 | 16.72507 | 6124 ft | 268 kts | 305° |
| 2026-05-04 15:48 | 48.45662 | 16.70304 | 5990 ft | 267 kts | 306° |
| 2026-05-04 15:48 | 48.46790 | 16.68076 | 5864 ft | 267 kts | 300° |
| 2026-05-04 15:48 | 48.47072 | 16.62988 | 5609 ft | 241 kts | 242° |
| 2026-05-04 15:49 | 48.46271 | 16.60829 | 5488 ft | 233 kts | 236° |
| 2026-05-04 15:49 | 48.45414 | 16.58770 | 5359 ft | 231 kts | 233° |
| 2026-05-04 15:49 | 48.44405 | 16.56905 | 5235 ft | 229 kts | 226° |
| 2026-05-04 15:49 | 48.43345 | 16.55119 | 5106 ft | 229 kts | 226° |
| 2026-05-04 15:50 | 48.42287 | 16.53348 | 5004 ft | 227 kts | 226° |
| 2026-05-04 15:50 | 48.41226 | 16.51574 | 5002 ft | 229 kts | 226° |
| 2026-05-04 15:50 | 48.40153 | 16.49795 | 4994 ft | 230 kts | 225° |
| 2026-05-04 15:50 | 48.38926 | 16.48291 | 5003 ft | 227 kts | 206° |
| 2026-05-04 15:51 | 48.37447 | 16.47549 | 5005 ft | 225 kts | 187° |
| 2026-05-04 15:51 | 48.35892 | 16.47648 | 4998 ft | 226 kts | 167° |
| 2026-05-04 15:51 | 48.34376 | 16.48284 | 4998 ft | 226 kts | 165° |
| 2026-05-04 15:51 | 48.32872 | 16.48931 | 4766 ft | 223 kts | 165° |
| 2026-05-04 15:52 | 48.31401 | 16.49561 | 4480 ft | 215 kts | 165° |
| 2026-05-04 15:52 | 48.30007 | 16.50155 | 4206 ft | 206 kts | 165° |
| 2026-05-04 15:52 | 48.28640 | 16.50738 | 3942 ft | 198 kts | 164° |
| 2026-05-04 15:52 | 48.27351 | 16.51287 | 3713 ft | 187 kts | 165° |
| 2026-05-04 15:53 | 48.26149 | 16.51799 | 3454 ft | 172 kts | 164° |
| 2026-05-04 15:53 | 48.25036 | 16.52273 | 3238 ft | 160 kts | 164° |
| 2026-05-04 15:53 | 48.24000 | 16.52714 | 3040 ft | 151 kts | 164° |
| 2026-05-04 15:53 | 48.23015 | 16.53132 | 2842 ft | 143 kts | 164° |
| 2026-05-04 15:54 | 48.22076 | 16.53532 | 2663 ft | 138 kts | 165° |
| 2026-05-04 15:54 | 48.21165 | 16.53919 | 2488 ft | 135 kts | 165° |
| 2026-05-04 15:54 | 48.20272 | 16.54298 | 2322 ft | 135 kts | 165° |
| 2026-05-04 15:54 | 48.19364 | 16.54684 | 2145 ft | 136 kts | 165° |
| 2026-05-04 15:55 | 48.18462 | 16.55067 | 1995 ft | 133 kts | 165° |
| 2026-05-04 15:55 | 48.17594 | 16.55435 | 1804 ft | 131 kts | 165° |
| 2026-05-04 15:55 | 48.16716 | 16.55808 | 1632 ft | 131 kts | 165° |
| 2026-05-04 15:55 | 48.15862 | 16.56164 | 1454 ft | 130 kts | 165° |
| 2026-05-04 15:56 | 48.15532 | 16.56300 | 1380 ft | 130 kts | 165° |
| 2026-05-04 15:56 | 48.14655 | 16.56650 | 1207 ft | 130 kts | 163° |
| 2026-05-04 15:56 | 48.13786 | 16.57050 | 1017 ft | 130 kts | 163° |
| 2026-05-04 15:56 | 48.12912 | 16.57401 | 841 ft | 130 kts | 163° |
| 2026-05-04 15:57 | 48.12038 | 16.57793 | 684 ft | 131 kts | 162° |
| 2026-05-04 15:57 | 48.11168 | 16.58154 | 625 ft | 127 kts | 163° |
| 2026-05-04 15:57 | 48.10430 | 16.58478 | 610 ft | 91 kts | 164° |
| 2026-05-04 15:57 | 48.09983 | 16.58660 | 618 ft | 42 kts | 164° |
| 2026-05-04 15:58 | 48.09717 | 16.58773 | 618 ft | 38 kts | 165° |
| 2026-05-04 15:58 | 48.09468 | 16.58878 | 610 ft | 36 kts | 163° |
| 2026-05-04 15:58 | 48.09235 | 16.58978 | 610 ft | 34 kts | 163° |
| 2026-05-04 15:58 | 48.09041 | 16.59039 | 610 ft | 21 kts | 187° |
| 2026-05-04 15:59 | 48.08944 | 16.58957 | 614 ft | 17 kts | 232° |
| 2026-05-04 15:59 | 48.08928 | 16.58779 | 617 ft | 19 kts | 289° |
| 2026-05-04 15:59 | 48.09026 | 16.58648 | 613 ft | 20 kts | 342° |
| 2026-05-04 15:59 | 48.09168 | 16.58589 | 624 ft | 22 kts | 345° |
| 2026-05-04 16:00 | 48.09322 | 16.58520 | 617 ft | 24 kts | 343° |
| 2026-05-04 16:00 | 48.09488 | 16.58452 | 620 ft | 25 kts | 345° |
| 2026-05-04 16:00 | 48.09642 | 16.58388 | 621 ft | 27 kts | 345° |
| 2026-05-04 16:00 | 48.09706 | 16.58361 | 619 ft | 28 kts | 343° |
| 2026-05-04 16:01 | 48.09897 | 16.58279 | 615 ft | 30 kts | 344° |
| 2026-05-04 16:01 | 48.10102 | 16.58193 | 611 ft | 32 kts | 344° |
| 2026-05-04 16:01 | 48.10321 | 16.58100 | 611 ft | 34 kts | 344° |
| 2026-05-04 16:01 | 48.10554 | 16.58003 | 618 ft | 36 kts | 343° |
| 2026-05-04 16:02 | 48.10793 | 16.57901 | 614 ft | 33 kts | 345° |
| 2026-05-04 16:02 | 48.10986 | 16.57820 | 611 ft | 17 kts | 344° |
| 2026-05-04 16:02 | 48.11129 | 16.57522 | 616 ft | 20 kts | 296° |
| 2026-05-04 16:03 | 48.11193 | 16.57325 | 614 ft | 22 kts | 295° |
| 2026-05-04 16:03 | 48.11262 | 16.57110 | 622 ft | 24 kts | 296° |
| 2026-05-04 16:03 | 48.11338 | 16.56878 | 613 ft | 26 kts | 296° |
| 2026-05-04 16:03 | 48.11420 | 16.56628 | 611 ft | 28 kts | 296° |
| 2026-05-04 16:04 | 48.11503 | 16.56369 | 619 ft | 24 kts | 296° |
| 2026-05-04 16:04 | 48.11630 | 16.56208 | 613 ft | 9 kts | 39° |
| 2026-05-04 16:04 | 48.11689 | 16.56229 | 620 ft | 10 kts | 340° |
| 2026-05-04 16:05 | 48.11766 | 16.56196 | 616 ft | 11 kts | 342° |
| 2026-05-04 16:05 | 48.11790 | 16.56186 | 612 ft | 0 kts | 343° |
| 2026-05-04 16:08 | 48.11789 | 16.56186 | 608 ft | 0 kts | 343° |
| 2026-05-04 16:31 | 48.11788 | 16.56186 | 608 ft | 0 kts | 343° |
| 2026-05-04 16:51 | 48.11787 | 16.56186 | 609 ft | 0 kts | 343° |
| 2026-05-04 16:53 | 48.11787 | 16.56187 | 609 ft | 0 kts | 343° |